sensor_id;sensor_type;location;lat;lon;timestamp;temperature;humidity
64918;HTU21D;52176;44.858;38.372;2023-06-22T00:02:16;18.34;83.59
64918;HTU21D;52176;44.858;38.372;2023-06-22T00:04:42;18.33;83.74
64918;HTU21D;52176;44.858;38.372;2023-06-22T00:07:08;18.24;82.85
64918;HTU21D;52176;44.858;38.372;2023-06-22T00:09:34;18.15;84.42
64918;HTU21D;52176;44.858;38.372;2023-06-22T00:12:00;18.17;84.77
64918;HTU21D;52176;44.858;38.372;2023-06-22T00:14:25;18.15;84.45
64918;HTU21D;52176;44.858;38.372;2023-06-22T00:16:51;18.13;83.46
64918;HTU21D;52176;44.858;38.372;2023-06-22T00:19:22;17.96;82.94
64918;HTU21D;52176;44.858;38.372;2023-06-22T00:21:50;17.83;84.85
64918;HTU21D;52176;44.858;38.372;2023-06-22T00:24:21;17.79;83.97
64918;HTU21D;52176;44.858;38.372;2023-06-22T00:26:48;17.69;83.36
64918;HTU21D;52176;44.858;38.372;2023-06-22T00:29:15;17.53;83.04
64918;HTU21D;52176;44.858;38.372;2023-06-22T00:31:41;17.41;83.07
64918;HTU21D;52176;44.858;38.372;2023-06-22T00:34:07;17.37;86.38
64918;HTU21D;52176;44.858;38.372;2023-06-22T00:36:34;17.47;86.95
64918;HTU21D;52176;44.858;38.372;2023-06-22T00:39:00;17.47;85.64
64918;HTU21D;52176;44.858;38.372;2023-06-22T00:41:27;17.38;84.88
64918;HTU21D;52176;44.858;38.372;2023-06-22T00:43:55;17.36;87.07
64918;HTU21D;52176;44.858;38.372;2023-06-22T00:46:21;17.41;87.17
64918;HTU21D;52176;44.858;38.372;2023-06-22T00:48:48;17.49;86.20
64918;HTU21D;52176;44.858;38.372;2023-06-22T00:51:14;17.51;85.39
64918;HTU21D;52176;44.858;38.372;2023-06-22T00:53:39;17.54;84.98
64918;HTU21D;52176;44.858;38.372;2023-06-22T00:56:06;17.55;85.02
64918;HTU21D;52176;44.858;38.372;2023-06-22T00:58:35;17.56;84.98
64918;HTU21D;52176;44.858;38.372;2023-06-22T01:01:01;17.52;84.40
64918;HTU21D;52176;44.858;38.372;2023-06-22T01:03:27;17.45;85.93
64918;HTU21D;52176;44.858;38.372;2023-06-22T01:05:56;17.41;85.03
64918;HTU21D;52176;44.858;38.372;2023-06-22T01:08:29;17.36;85.97
64918;HTU21D;52176;44.858;38.372;2023-06-22T01:13:36;17.45;86.74
64918;HTU21D;52176;44.858;38.372;2023-06-22T01:16:25;17.49;86.56
64918;HTU21D;52176;44.858;38.372;2023-06-22T01:18:50;17.49;86.96
64918;HTU21D;52176;44.858;38.372;2023-06-22T01:21:17;17.46;85.89
64918;HTU21D;52176;44.858;38.372;2023-06-22T01:26:22;17.40;87.21
64918;HTU21D;52176;44.858;38.372;2023-06-22T01:28:54;17.41;86.97
64918;HTU21D;52176;44.858;38.372;2023-06-22T01:31:23;17.43;87.06
64918;HTU21D;52176;44.858;38.372;2023-06-22T01:33:50;17.39;86.12
64918;HTU21D;52176;44.858;38.372;2023-06-22T01:36:17;17.30;85.71
64918;HTU21D;52176;44.858;38.372;2023-06-22T01:38:45;17.18;85.46
64918;HTU21D;52176;44.858;38.372;2023-06-22T01:41:12;17.06;87.99
64918;HTU21D;52176;44.858;38.372;2023-06-22T01:43:38;17.13;88.40
64918;HTU21D;52176;44.858;38.372;2023-06-22T01:46:04;17.19;88.24
64918;HTU21D;52176;44.858;38.372;2023-06-22T01:48:30;17.25;87.96
64918;HTU21D;52176;44.858;38.372;2023-06-22T01:50:57;17.31;87.91
64918;HTU21D;52176;44.858;38.372;2023-06-22T01:53:23;17.34;87.75
64918;HTU21D;52176;44.858;38.372;2023-06-22T01:55:51;17.33;86.89
64918;HTU21D;52176;44.858;38.372;2023-06-22T01:58:17;17.28;86.29
64918;HTU21D;52176;44.858;38.372;2023-06-22T02:00:48;17.17;85.87
64918;HTU21D;52176;44.858;38.372;2023-06-22T02:03:23;17.04;85.56
64918;HTU21D;52176;44.858;38.372;2023-06-22T02:06:14;16.92;85.33
64918;HTU21D;52176;44.858;38.372;2023-06-22T02:08:40;16.77;85.08
64918;HTU21D;52176;44.858;38.372;2023-06-22T02:11:08;16.77;88.71
64918;HTU21D;52176;44.858;38.372;2023-06-22T02:13:36;16.92;89.66
64918;HTU21D;52176;44.858;38.372;2023-06-22T02:16:02;17.06;89.43
64918;HTU21D;52176;44.858;38.372;2023-06-22T02:18:28;17.20;89.17
64918;HTU21D;52176;44.858;38.372;2023-06-22T02:20:54;17.33;89.18
64918;HTU21D;52176;44.858;38.372;2023-06-22T02:23:21;17.47;89.42
64918;HTU21D;52176;44.858;38.372;2023-06-22T02:25:47;17.60;89.34
64918;HTU21D;52176;44.858;38.372;2023-06-22T02:28:13;17.74;88.85
64918;HTU21D;52176;44.858;38.372;2023-06-22T02:30:39;17.90;88.49
64918;HTU21D;52176;44.858;38.372;2023-06-22T02:33:06;18.03;88.21
64918;HTU21D;52176;44.858;38.372;2023-06-22T02:35:32;18.14;87.70
64918;HTU21D;52176;44.858;38.372;2023-06-22T02:38:01;18.22;86.87
64918;HTU21D;52176;44.858;38.372;2023-06-22T02:40:27;18.28;87.57
64918;HTU21D;52176;44.858;38.372;2023-06-22T02:42:55;18.44;87.15
64918;HTU21D;52176;44.858;38.372;2023-06-22T02:45:23;18.63;87.15
64918;HTU21D;52176;44.858;38.372;2023-06-22T02:47:50;18.71;86.22
64918;HTU21D;52176;44.858;38.372;2023-06-22T02:50:17;18.81;86.20
64918;HTU21D;52176;44.858;38.372;2023-06-22T02:52:43;18.96;85.44
64918;HTU21D;52176;44.858;38.372;2023-06-22T02:55:10;19.00;84.77
64918;HTU21D;52176;44.858;38.372;2023-06-22T02:57:36;19.12;86.14
64918;HTU21D;52176;44.858;38.372;2023-06-22T03:00:02;19.30;85.08
64918;HTU21D;52176;44.858;38.372;2023-06-22T03:02:29;19.48;85.51
64918;HTU21D;52176;44.858;38.372;2023-06-22T03:04:55;19.73;84.69
64918;HTU21D;52176;44.858;38.372;2023-06-22T03:07:21;20.00;84.00
64918;HTU21D;52176;44.858;38.372;2023-06-22T03:09:49;20.27;82.97
64918;HTU21D;52176;44.858;38.372;2023-06-22T03:12:15;20.47;82.24
64918;HTU21D;52176;44.858;38.372;2023-06-22T03:14:50;20.61;81.49
64918;HTU21D;52176;44.858;38.372;2023-06-22T03:17:17;20.75;81.63
64918;HTU21D;52176;44.858;38.372;2023-06-22T03:19:43;21.01;80.85
64918;HTU21D;52176;44.858;38.372;2023-06-22T03:22:09;21.23;80.60
64918;HTU21D;52176;44.858;38.372;2023-06-22T03:24:35;21.54;79.82
64918;HTU21D;52176;44.858;38.372;2023-06-22T03:27:02;21.89;79.16
64918;HTU21D;52176;44.858;38.372;2023-06-22T03:29:30;22.13;78.45
64918;HTU21D;52176;44.858;38.372;2023-06-22T03:31:56;22.35;77.95
64918;HTU21D;52176;44.858;38.372;2023-06-22T03:34:22;22.55;77.72
64918;HTU21D;52176;44.858;38.372;2023-06-22T03:36:51;22.65;77.11
64918;HTU21D;52176;44.858;38.372;2023-06-22T03:39:17;22.76;77.70
64918;HTU21D;52176;44.858;38.372;2023-06-22T03:41:43;23.05;76.41
64918;HTU21D;52176;44.858;38.372;2023-06-22T03:44:08;23.30;75.83
64918;HTU21D;52176;44.858;38.372;2023-06-22T03:46:37;23.50;74.99
64918;HTU21D;52176;44.858;38.372;2023-06-22T03:49:03;23.84;73.84
64918;HTU21D;52176;44.858;38.372;2023-06-22T03:51:30;24.14;73.67
64918;HTU21D;52176;44.858;38.372;2023-06-22T03:53:56;24.29;73.53
64918;HTU21D;52176;44.858;38.372;2023-06-22T03:56:21;24.33;72.95
64918;HTU21D;52176;44.858;38.372;2023-06-22T03:58:47;24.45;73.03
64918;HTU21D;52176;44.858;38.372;2023-06-22T04:01:13;24.48;72.45
64918;HTU21D;52176;44.858;38.372;2023-06-22T04:03:39;24.58;72.13
64918;HTU21D;52176;44.858;38.372;2023-06-22T04:06:05;24.64;70.56
64918;HTU21D;52176;44.858;38.372;2023-06-22T04:08:30;24.89;69.53
64918;HTU21D;52176;44.858;38.372;2023-06-22T04:10:56;25.16;68.15
64918;HTU21D;52176;44.858;38.372;2023-06-22T04:13:22;25.44;67.21
64918;HTU21D;52176;44.858;38.372;2023-06-22T04:15:48;25.76;66.31
64918;HTU21D;52176;44.858;38.372;2023-06-22T04:18:14;26.09;65.47
64918;HTU21D;52176;44.858;38.372;2023-06-22T04:20:40;26.41;64.77
64918;HTU21D;52176;44.858;38.372;2023-06-22T04:23:06;26.70;63.44
64918;HTU21D;52176;44.858;38.372;2023-06-22T04:25:31;27.02;62.58
64918;HTU21D;52176;44.858;38.372;2023-06-22T04:27:57;27.35;61.51
64918;HTU21D;52176;44.858;38.372;2023-06-22T04:30:23;27.59;61.79
64918;HTU21D;52176;44.858;38.372;2023-06-22T04:32:49;27.78;61.84
64918;HTU21D;52176;44.858;38.372;2023-06-22T04:35:21;27.86;60.15
64918;HTU21D;52176;44.858;38.372;2023-06-22T04:37:48;28.01;60.48
64918;HTU21D;52176;44.858;38.372;2023-06-22T04:40:15;28.18;61.14
64918;HTU21D;52176;44.858;38.372;2023-06-22T04:42:41;28.29;60.68
64918;HTU21D;52176;44.858;38.372;2023-06-22T04:45:17;28.34;58.65
64918;HTU21D;52176;44.858;38.372;2023-06-22T04:47:43;28.65;57.55
64918;HTU21D;52176;44.858;38.372;2023-06-22T04:50:14;29.02;56.93
64918;HTU21D;52176;44.858;38.372;2023-06-22T04:52:40;29.34;56.26
64918;HTU21D;52176;44.858;38.372;2023-06-22T04:55:05;29.59;57.10
64918;HTU21D;52176;44.858;38.372;2023-06-22T04:57:32;29.65;56.90
64918;HTU21D;52176;44.858;38.372;2023-06-22T05:00:01;29.72;55.15
64918;HTU21D;52176;44.858;38.372;2023-06-22T05:02:27;29.97;53.25
64918;HTU21D;52176;44.858;38.372;2023-06-22T05:04:57;30.26;52.43
64918;HTU21D;52176;44.858;38.372;2023-06-22T05:07:23;30.51;52.02
64918;HTU21D;52176;44.858;38.372;2023-06-22T05:09:51;30.72;51.53
64918;HTU21D;52176;44.858;38.372;2023-06-22T05:12:16;30.95;50.00
64918;HTU21D;52176;44.858;38.372;2023-06-22T05:14:42;31.13;49.28
64918;HTU21D;52176;44.858;38.372;2023-06-22T05:17:08;31.35;49.73
64918;HTU21D;52176;44.858;38.372;2023-06-22T05:19:39;31.57;48.83
64918;HTU21D;52176;44.858;38.372;2023-06-22T05:22:05;31.83;48.65
64918;HTU21D;52176;44.858;38.372;2023-06-22T05:24:50;32.07;49.35
64918;HTU21D;52176;44.858;38.372;2023-06-22T05:27:16;32.23;47.50
64918;HTU21D;52176;44.858;38.372;2023-06-22T05:29:42;32.39;46.22
64918;HTU21D;52176;44.858;38.372;2023-06-22T05:32:08;32.45;45.40
64918;HTU21D;52176;44.858;38.372;2023-06-22T05:34:34;32.67;45.72
64918;HTU21D;52176;44.858;38.372;2023-06-22T05:37:18;32.88;44.94
64918;HTU21D;52176;44.858;38.372;2023-06-22T05:39:44;33.14;45.06
64918;HTU21D;52176;44.858;38.372;2023-06-22T05:42:10;33.40;44.87
64918;HTU21D;52176;44.858;38.372;2023-06-22T05:44:54;33.50;45.27
64918;HTU21D;52176;44.858;38.372;2023-06-22T05:47:20;33.45;44.52
64918;HTU21D;52176;44.858;38.372;2023-06-22T05:49:48;33.48;44.52
64918;HTU21D;52176;44.858;38.372;2023-06-22T05:52:32;33.68;44.81
64918;HTU21D;52176;44.858;38.372;2023-06-22T05:54:58;33.78;43.38
64918;HTU21D;52176;44.858;38.372;2023-06-22T05:57:24;33.88;43.71
64918;HTU21D;52176;44.858;38.372;2023-06-22T05:59:49;33.95;44.38
64918;HTU21D;52176;44.858;38.372;2023-06-22T06:02:15;34.09;43.18
64918;HTU21D;52176;44.858;38.372;2023-06-22T06:04:41;34.40;43.41
64918;HTU21D;52176;44.858;38.372;2023-06-22T06:07:07;34.67;43.70
64918;HTU21D;52176;44.858;38.372;2023-06-22T06:09:33;34.98;44.12
64918;HTU21D;52176;44.858;38.372;2023-06-22T06:12:17;35.20;43.56
64918;HTU21D;52176;44.858;38.372;2023-06-22T06:14:43;35.39;40.82
64918;HTU21D;52176;44.858;38.372;2023-06-22T06:17:09;35.64;39.54
64918;HTU21D;52176;44.858;38.372;2023-06-22T06:19:35;35.86;40.01
64918;HTU21D;52176;44.858;38.372;2023-06-22T06:22:00;36.07;39.91
64918;HTU21D;52176;44.858;38.372;2023-06-22T06:24:26;36.25;38.27
64918;HTU21D;52176;44.858;38.372;2023-06-22T06:26:52;36.44;38.08
64918;HTU21D;52176;44.858;38.372;2023-06-22T06:29:18;36.60;37.37
64918;HTU21D;52176;44.858;38.372;2023-06-22T06:31:44;36.70;37.31
64918;HTU21D;52176;44.858;38.372;2023-06-22T06:34:10;36.71;37.71
64918;HTU21D;52176;44.858;38.372;2023-06-22T06:36:36;36.71;37.26
64918;HTU21D;52176;44.858;38.372;2023-06-22T06:39:02;36.78;36.83
64918;HTU21D;52176;44.858;38.372;2023-06-22T06:41:29;36.82;36.97
64918;HTU21D;52176;44.858;38.372;2023-06-22T06:43:55;36.84;36.28
64918;HTU21D;52176;44.858;38.372;2023-06-22T06:46:21;36.95;37.79
64918;HTU21D;52176;44.858;38.372;2023-06-22T06:48:46;37.10;37.44
64918;HTU21D;52176;44.858;38.372;2023-06-22T06:51:12;37.14;37.43
64918;HTU21D;52176;44.858;38.372;2023-06-22T06:53:38;37.11;35.81
64918;HTU21D;52176;44.858;38.372;2023-06-22T06:56:04;37.25;35.95
64918;HTU21D;52176;44.858;38.372;2023-06-22T06:58:31;37.41;36.73
64918;HTU21D;52176;44.858;38.372;2023-06-22T07:00:56;37.40;36.85
64918;HTU21D;52176;44.858;38.372;2023-06-22T07:03:22;37.16;36.62
64918;HTU21D;52176;44.858;38.372;2023-06-22T07:05:48;36.88;33.68
64918;HTU21D;52176;44.858;38.372;2023-06-22T07:08:14;36.84;33.29
64918;HTU21D;52176;44.858;38.372;2023-06-22T07:10:39;36.92;34.12
64918;HTU21D;52176;44.858;38.372;2023-06-22T07:13:05;36.99;34.07
64918;HTU21D;52176;44.858;38.372;2023-06-22T07:15:31;36.92;33.63
64918;HTU21D;52176;44.858;38.372;2023-06-22T07:17:57;36.76;34.31
64918;HTU21D;52176;44.858;38.372;2023-06-22T07:20:23;36.87;35.07
64918;HTU21D;52176;44.858;38.372;2023-06-22T07:22:49;36.98;35.04
64918;HTU21D;52176;44.858;38.372;2023-06-22T07:25:14;36.96;33.59
64918;HTU21D;52176;44.858;38.372;2023-06-22T07:28:14;36.87;34.58
64918;HTU21D;52176;44.858;38.372;2023-06-22T07:30:32;37.29;34.63
64918;HTU21D;52176;44.858;38.372;2023-06-22T07:32:59;37.46;34.30
64918;HTU21D;52176;44.858;38.372;2023-06-22T07:35:30;37.54;35.02
64918;HTU21D;52176;44.858;38.372;2023-06-22T07:37:56;37.75;35.34
64918;HTU21D;52176;44.858;38.372;2023-06-22T07:40:22;37.96;34.83
64918;HTU21D;52176;44.858;38.372;2023-06-22T07:42:48;38.07;34.70
64918;HTU21D;52176;44.858;38.372;2023-06-22T07:45:17;38.06;34.44
64918;HTU21D;52176;44.858;38.372;2023-06-22T07:47:43;38.07;34.75
64918;HTU21D;52176;44.858;38.372;2023-06-22T07:50:10;38.23;34.12
64918;HTU21D;52176;44.858;38.372;2023-06-22T07:52:36;38.01;33.57
64918;HTU21D;52176;44.858;38.372;2023-06-22T07:55:02;37.82;34.17
64918;HTU21D;52176;44.858;38.372;2023-06-22T07:57:28;37.87;34.09
64918;HTU21D;52176;44.858;38.372;2023-06-22T08:00:03;37.72;33.50
64918;HTU21D;52176;44.858;38.372;2023-06-22T08:02:38;37.75;34.22
64918;HTU21D;52176;44.858;38.372;2023-06-22T08:05:05;37.82;34.17
64918;HTU21D;52176;44.858;38.372;2023-06-22T08:07:32;37.81;33.91
64918;HTU21D;52176;44.858;38.372;2023-06-22T08:09:59;37.70;33.60
64918;HTU21D;52176;44.858;38.372;2023-06-22T08:12:25;37.60;33.80
64918;HTU21D;52176;44.858;38.372;2023-06-22T08:14:51;37.65;33.80
64918;HTU21D;52176;44.858;38.372;2023-06-22T08:17:17;37.69;34.15
64918;HTU21D;52176;44.858;38.372;2023-06-22T08:19:43;37.70;33.99
64918;HTU21D;52176;44.858;38.372;2023-06-22T08:22:09;37.58;33.85
64918;HTU21D;52176;44.858;38.372;2023-06-22T08:24:35;37.31;34.25
64918;HTU21D;52176;44.858;38.372;2023-06-22T08:27:01;37.10;34.76
64918;HTU21D;52176;44.858;38.372;2023-06-22T08:29:27;36.85;34.43
64918;HTU21D;52176;44.858;38.372;2023-06-22T08:31:52;36.74;34.49
64918;HTU21D;52176;44.858;38.372;2023-06-22T08:34:18;36.80;34.31
64918;HTU21D;52176;44.858;38.372;2023-06-22T08:36:50;36.73;34.33
64918;HTU21D;52176;44.858;38.372;2023-06-22T08:39:21;36.77;34.79
64918;HTU21D;52176;44.858;38.372;2023-06-22T08:41:48;36.84;34.58
64918;HTU21D;52176;44.858;38.372;2023-06-22T08:44:16;36.98;34.18
64918;HTU21D;52176;44.858;38.372;2023-06-22T08:46:42;37.04;34.25
64918;HTU21D;52176;44.858;38.372;2023-06-22T08:49:08;36.99;34.49
64918;HTU21D;52176;44.858;38.372;2023-06-22T08:51:35;37.03;34.82
64918;HTU21D;52176;44.858;38.372;2023-06-22T08:54:02;37.19;34.73
64918;HTU21D;52176;44.858;38.372;2023-06-22T08:56:28;37.20;34.35
64918;HTU21D;52176;44.858;38.372;2023-06-22T08:58:54;36.63;35.03
64918;HTU21D;52176;44.858;38.372;2023-06-22T09:01:21;36.58;35.63
64918;HTU21D;52176;44.858;38.372;2023-06-22T09:03:47;36.82;35.24
64918;HTU21D;52176;44.858;38.372;2023-06-22T09:06:21;36.78;35.01
64918;HTU21D;52176;44.858;38.372;2023-06-22T09:08:47;36.03;35.56
64918;HTU21D;52176;44.858;38.372;2023-06-22T09:11:13;35.38;35.98
64918;HTU21D;52176;44.858;38.372;2023-06-22T09:13:40;34.89;37.24
64918;HTU21D;52176;44.858;38.372;2023-06-22T09:16:05;35.21;37.15
64918;HTU21D;52176;44.858;38.372;2023-06-22T09:18:33;35.45;36.60
64918;HTU21D;52176;44.858;38.372;2023-06-22T09:20:59;35.25;36.37
64918;HTU21D;52176;44.858;38.372;2023-06-22T09:23:25;35.06;37.03
64918;HTU21D;52176;44.858;38.372;2023-06-22T09:25:51;35.41;36.66
64918;HTU21D;52176;44.858;38.372;2023-06-22T09:28:17;35.44;36.05
64918;HTU21D;52176;44.858;38.372;2023-06-22T09:30:44;35.55;36.17
64918;HTU21D;52176;44.858;38.372;2023-06-22T09:33:10;35.74;34.74
64918;HTU21D;52176;44.858;38.372;2023-06-22T09:35:36;35.90;34.37
64918;HTU21D;52176;44.858;38.372;2023-06-22T09:38:02;36.12;33.83
64918;HTU21D;52176;44.858;38.372;2023-06-22T09:40:28;36.36;33.52
64918;HTU21D;52176;44.858;38.372;2023-06-22T09:42:54;36.49;32.83
64918;HTU21D;52176;44.858;38.372;2023-06-22T09:45:20;36.32;32.86
64918;HTU21D;52176;44.858;38.372;2023-06-22T09:47:46;35.56;33.38
64918;HTU21D;52176;44.858;38.372;2023-06-22T09:50:12;35.55;33.98
64918;HTU21D;52176;44.858;38.372;2023-06-22T09:52:38;35.89;33.47
64918;HTU21D;52176;44.858;38.372;2023-06-22T09:55:04;36.16;32.73
64918;HTU21D;52176;44.858;38.372;2023-06-22T09:57:30;36.28;32.57
64918;HTU21D;52176;44.858;38.372;2023-06-22T09:59:56;36.40;32.72
64918;HTU21D;52176;44.858;38.372;2023-06-22T10:02:22;36.45;32.44
64918;HTU21D;52176;44.858;38.372;2023-06-22T10:04:48;36.47;31.57
64918;HTU21D;52176;44.858;38.372;2023-06-22T10:07:14;36.56;31.60
64918;HTU21D;52176;44.858;38.372;2023-06-22T10:09:40;36.88;31.57
64918;HTU21D;52176;44.858;38.372;2023-06-22T10:12:07;37.11;30.86
64918;HTU21D;52176;44.858;38.372;2023-06-22T10:14:33;37.26;31.03
64918;HTU21D;52176;44.858;38.372;2023-06-22T10:16:59;37.50;30.88
64918;HTU21D;52176;44.858;38.372;2023-06-22T10:19:25;37.63;31.03
64918;HTU21D;52176;44.858;38.372;2023-06-22T10:21:51;37.92;30.63
64918;HTU21D;52176;44.858;38.372;2023-06-22T10:24:17;38.04;29.80
64918;HTU21D;52176;44.858;38.372;2023-06-22T10:26:43;37.91;29.36
64918;HTU21D;52176;44.858;38.372;2023-06-22T10:29:09;37.91;29.93
64918;HTU21D;52176;44.858;38.372;2023-06-22T10:31:35;38.02;29.28
64918;HTU21D;52176;44.858;38.372;2023-06-22T10:34:01;37.38;29.68
64918;HTU21D;52176;44.858;38.372;2023-06-22T10:36:27;36.55;30.96
64918;HTU21D;52176;44.858;38.372;2023-06-22T10:38:53;36.57;30.92
64918;HTU21D;52176;44.858;38.372;2023-06-22T10:41:21;36.55;30.96
64918;HTU21D;52176;44.858;38.372;2023-06-22T10:43:47;35.81;31.08
64918;HTU21D;52176;44.858;38.372;2023-06-22T10:46:13;34.83;32.23
64918;HTU21D;52176;44.858;38.372;2023-06-22T10:48:38;34.81;32.86
64918;HTU21D;52176;44.858;38.372;2023-06-22T10:51:05;34.96;32.89
64918;HTU21D;52176;44.858;38.372;2023-06-22T10:53:32;34.84;33.56
64918;HTU21D;52176;44.858;38.372;2023-06-22T10:55:58;34.70;33.53
64918;HTU21D;52176;44.858;38.372;2023-06-22T10:58:24;34.71;34.02
64918;HTU21D;52176;44.858;38.372;2023-06-22T11:00:50;35.13;33.57
64918;HTU21D;52176;44.858;38.372;2023-06-22T11:03:17;35.50;32.48
64918;HTU21D;52176;44.858;38.372;2023-06-22T11:05:43;35.81;31.51
64918;HTU21D;52176;44.858;38.372;2023-06-22T11:08:09;36.03;31.06
64918;HTU21D;52176;44.858;38.372;2023-06-22T11:10:35;36.33;30.80
64918;HTU21D;52176;44.858;38.372;2023-06-22T11:13:01;36.38;30.23
64918;HTU21D;52176;44.858;38.372;2023-06-22T11:15:29;36.33;30.60
64918;HTU21D;52176;44.858;38.372;2023-06-22T11:17:55;36.51;30.44
64918;HTU21D;52176;44.858;38.372;2023-06-22T11:20:21;36.60;29.77
64918;HTU21D;52176;44.858;38.372;2023-06-22T11:22:47;36.62;29.45
64918;HTU21D;52176;44.858;38.372;2023-06-22T11:25:13;36.48;29.53
64918;HTU21D;52176;44.858;38.372;2023-06-22T11:27:39;36.53;29.48
64918;HTU21D;52176;44.858;38.372;2023-06-22T11:30:06;36.51;29.16
64918;HTU21D;52176;44.858;38.372;2023-06-22T11:32:33;36.32;29.83
64918;HTU21D;52176;44.858;38.372;2023-06-22T11:34:59;36.34;29.47
64918;HTU21D;52176;44.858;38.372;2023-06-22T11:37:25;36.41;29.74
64918;HTU21D;52176;44.858;38.372;2023-06-22T11:39:51;36.32;28.97
64918;HTU21D;52176;44.858;38.372;2023-06-22T11:42:20;36.16;28.98
64918;HTU21D;52176;44.858;38.372;2023-06-22T11:44:46;36.10;29.50
64918;HTU21D;52176;44.858;38.372;2023-06-22T11:47:12;36.14;29.23
64918;HTU21D;52176;44.858;38.372;2023-06-22T11:49:38;36.02;29.10
64918;HTU21D;52176;44.858;38.372;2023-06-22T11:52:05;35.79;29.35
64918;HTU21D;52176;44.858;38.372;2023-06-22T11:54:31;35.62;29.67
64918;HTU21D;52176;44.858;38.372;2023-06-22T11:56:57;35.49;29.63
64918;HTU21D;52176;44.858;38.372;2023-06-22T11:59:23;35.35;29.96
64918;HTU21D;52176;44.858;38.372;2023-06-22T12:01:49;35.11;29.89
64918;HTU21D;52176;44.858;38.372;2023-06-22T12:04:17;34.89;30.67
64918;HTU21D;52176;44.858;38.372;2023-06-22T12:06:43;34.90;30.80
64918;HTU21D;52176;44.858;38.372;2023-06-22T12:09:10;34.56;30.95
64918;HTU21D;52176;44.858;38.372;2023-06-22T12:11:35;34.31;30.95
64918;HTU21D;52176;44.858;38.372;2023-06-22T12:14:01;34.25;31.16
64918;HTU21D;52176;44.858;38.372;2023-06-22T12:16:28;34.22;31.21
64918;HTU21D;52176;44.858;38.372;2023-06-22T12:18:54;34.20;31.21
64918;HTU21D;52176;44.858;38.372;2023-06-22T12:21:20;34.21;31.41
64918;HTU21D;52176;44.858;38.372;2023-06-22T12:23:46;34.30;31.77
64918;HTU21D;52176;44.858;38.372;2023-06-22T12:26:12;34.38;31.70
64918;HTU21D;52176;44.858;38.372;2023-06-22T12:28:38;34.55;31.90
64918;HTU21D;52176;44.858;38.372;2023-06-22T12:31:04;34.59;31.22
64918;HTU21D;52176;44.858;38.372;2023-06-22T12:33:30;34.42;30.71
64918;HTU21D;52176;44.858;38.372;2023-06-22T12:35:57;34.26;30.96
64918;HTU21D;52176;44.858;38.372;2023-06-22T12:38:23;34.08;31.25
64918;HTU21D;52176;44.858;38.372;2023-06-22T12:40:51;33.97;31.51
64918;HTU21D;52176;44.858;38.372;2023-06-22T12:43:17;33.88;30.70
64918;HTU21D;52176;44.858;38.372;2023-06-22T12:45:42;33.59;31.76
64918;HTU21D;52176;44.858;38.372;2023-06-22T12:48:08;33.35;31.73
64918;HTU21D;52176;44.858;38.372;2023-06-22T12:50:34;33.49;31.80
64918;HTU21D;52176;44.858;38.372;2023-06-22T12:53:00;33.49;32.15
64918;HTU21D;52176;44.858;38.372;2023-06-22T12:55:28;33.37;32.17
64918;HTU21D;52176;44.858;38.372;2023-06-22T12:57:54;33.03;32.76
64918;HTU21D;52176;44.858;38.372;2023-06-22T13:00:20;33.06;32.96
64918;HTU21D;52176;44.858;38.372;2023-06-22T13:02:46;33.04;32.03
64918;HTU21D;52176;44.858;38.372;2023-06-22T13:05:12;32.89;31.66
64918;HTU21D;52176;44.858;38.372;2023-06-22T13:07:38;32.86;32.61
64918;HTU21D;52176;44.858;38.372;2023-06-22T13:10:04;32.93;32.56
64918;HTU21D;52176;44.858;38.372;2023-06-22T13:12:30;32.90;33.34
64918;HTU21D;52176;44.858;38.372;2023-06-22T13:14:56;32.79;32.74
64918;HTU21D;52176;44.858;38.372;2023-06-22T13:17:22;32.79;33.05
64918;HTU21D;52176;44.858;38.372;2023-06-22T13:19:48;32.85;32.28
64918;HTU21D;52176;44.858;38.372;2023-06-22T13:24:52;32.85;32.66
64918;HTU21D;52176;44.858;38.372;2023-06-22T13:27:17;32.78;33.20
64918;HTU21D;52176;44.858;38.372;2023-06-22T13:29:43;32.68;32.83
64918;HTU21D;52176;44.858;38.372;2023-06-22T13:32:09;32.55;32.81
64918;HTU21D;52176;44.858;38.372;2023-06-22T13:34:35;32.43;33.45
64918;HTU21D;52176;44.858;38.372;2023-06-22T13:37:01;32.30;33.76
64918;HTU21D;52176;44.858;38.372;2023-06-22T13:39:27;32.12;33.75
64918;HTU21D;52176;44.858;38.372;2023-06-22T13:41:52;32.08;33.93
64918;HTU21D;52176;44.858;38.372;2023-06-22T13:44:18;32.03;33.61
64918;HTU21D;52176;44.858;38.372;2023-06-22T13:46:44;31.81;33.48
64918;HTU21D;52176;44.858;38.372;2023-06-22T13:49:10;31.61;33.42
64918;HTU21D;52176;44.858;38.372;2023-06-22T13:51:36;31.42;33.62
64918;HTU21D;52176;44.858;38.372;2023-06-22T13:54:02;31.33;33.99
64918;HTU21D;52176;44.858;38.372;2023-06-22T13:56:27;31.34;34.44
64918;HTU21D;52176;44.858;38.372;2023-06-22T13:58:53;31.29;34.57
64918;HTU21D;52176;44.858;38.372;2023-06-22T14:01:19;31.16;33.76
64918;HTU21D;52176;44.858;38.372;2023-06-22T14:03:45;31.04;33.69
64918;HTU21D;52176;44.858;38.372;2023-06-22T14:06:12;31.00;34.83
64918;HTU21D;52176;44.858;38.372;2023-06-22T14:08:38;30.96;34.57
64918;HTU21D;52176;44.858;38.372;2023-06-22T14:11:04;30.91;34.73
64918;HTU21D;52176;44.858;38.372;2023-06-22T14:13:30;30.74;34.71
64918;HTU21D;52176;44.858;38.372;2023-06-22T14:15:56;30.55;34.77
64918;HTU21D;52176;44.858;38.372;2023-06-22T14:18:22;30.31;35.11
64918;HTU21D;52176;44.858;38.372;2023-06-22T14:20:48;30.11;35.28
64918;HTU21D;52176;44.858;38.372;2023-06-22T14:23:14;30.13;35.20
64918;HTU21D;52176;44.858;38.372;2023-06-22T14:25:40;30.17;36.00
64918;HTU21D;52176;44.858;38.372;2023-06-22T14:28:06;30.20;36.43
64918;HTU21D;52176;44.858;38.372;2023-06-22T14:30:31;30.21;35.34
64918;HTU21D;52176;44.858;38.372;2023-06-22T14:32:57;30.16;35.82
64918;HTU21D;52176;44.858;38.372;2023-06-22T14:35:23;30.08;35.13
64918;HTU21D;52176;44.858;38.372;2023-06-22T14:37:50;29.95;35.16
64918;HTU21D;52176;44.858;38.372;2023-06-22T14:40:15;29.87;35.11
64918;HTU21D;52176;44.858;38.372;2023-06-22T14:42:41;29.78;35.05
64918;HTU21D;52176;44.858;38.372;2023-06-22T14:45:07;29.64;35.47
64918;HTU21D;52176;44.858;38.372;2023-06-22T14:47:33;29.51;35.98
64918;HTU21D;52176;44.858;38.372;2023-06-22T14:49:59;29.48;35.77
64918;HTU21D;52176;44.858;38.372;2023-06-22T14:52:26;29.34;35.95
64918;HTU21D;52176;44.858;38.372;2023-06-22T14:54:52;29.13;36.20
64918;HTU21D;52176;44.858;38.372;2023-06-22T14:57:18;28.92;36.77
64918;HTU21D;52176;44.858;38.372;2023-06-22T14:59:46;28.71;36.92
64918;HTU21D;52176;44.858;38.372;2023-06-22T15:02:12;28.52;37.10
64918;HTU21D;52176;44.858;38.372;2023-06-22T15:04:38;28.37;37.20
64918;HTU21D;52176;44.858;38.372;2023-06-22T15:07:04;28.27;37.19
64918;HTU21D;52176;44.858;38.372;2023-06-22T15:09:30;28.15;37.13